Pagrindinis puslapis
METAR-TAF:

METAR-TAF

Oro uostai :

Hagi, Japonija

platuma: 34-40N, ilguma: 131-48E, Aukštis: 54 m

Dabartinis oras

Ataskaita buvo paskelbta 26 minutes, ne 05:00 UTC
Vėjas 5 kt iš Šiaurės Vakarų, svyruoja nuo Vakarų ir Šiaurės/Šiaurės Rytų
Temperatūra 11°C
Drėgmė 54%
Slėgis 1031 hPa
Matomumas 10 km arba daugiau
Mažai debesys ne aukštis 3500 ft

METAR: RJOW 200500Z 32005KT 280V030 9999 FEW035 11/02 Q1031

Laikas: 14:26 (05:26 UTC)


TAF: trūkstamas

Orai ataskaitas ir orų prognozės (METAR, TAF).

turimą stotys yra geltonos ir raudonos taškus žemėlapyje.

Perkelti pele per norėdami pamatyti stoties vardą.

Tada spustelėkite, norėdami matyti oro stebėjimo ir prognozės.

Norėdami pakeisti žemėlapį: spustelėkite ant žalios mygtukų su juodo kryžiaus žemyn,; žalią mygtuką su brūkšneliu, jei norite nutolinti; arba žalių rodyklių gretimoms žemėlapius.


METAR-TAF: